Airfield :
LOGIN :

Register | Disclaimer

   EN    FR    IT 

 










Legend :    VFR   Marginal VFR   IFR   Intensive IFR   Very Intensive IFR
Visi :
Ceiling :
>= 8 km
>= 3000ft
5 to 8 km
1000 to 3000 ft
1500m to 5 km
500 to 1000 ft
800 to 1500m
200 to 500 ft
< 800m
< 200 ft
Symbols :   Thunderstorms  Fog  Heavy snow  Heavy precipitations  Wind > 20 kt
SIGMETs :     Misc.  Thunderstorms  Icing  Turbulence  Mountain Waves  Volcanic Ashes






- Airport Elevation : 1411 ft
- IATA code : ZHI


LSZG - Grenchen

CURRENT METAR :
  • 232350Z AUTO 23004KT 9999 -DZ SCT013 SCT015 BKN018 11/11 Q1019

EXPIRED METARs :
  • 232320Z AUTO 24005KT 9999 BKN036 12/11 Q1019
  • 232250Z AUTO 26003KT 9999 FEW016 SCT018 BKN055 12/11 Q1018
  • 232220Z AUTO 22005KT 9999 FEW018 OVC048 12/11 Q1018
  • 232150Z AUTO 23005KT 9999 FEW017 SCT020 BKN041 12/11 Q1019
  • 232120Z AUTO 24002KT 9999 BKN014 BKN016 BKN018 12/11 Q1018

Expired Forecast.
ATIS : +41 32 396 96 33



MET'MAP, your aeronautical weather chart ! - Copyright ORBIFLY December 2007 - Disclaimer

ORBIFLY MET'MAP TEAM :

Programming & Development : Alexandra Zaïnal
Concept & original design : Baudouin d'Aumeries
Assistance for programming : Marc-Olivier Méhu
Technical & hardware support : Manuel Goepfert

Contact : metmap@orbifly.com




SOURCES & CREDITS :

   NOAA